Time;durP1;ratioP1;P1;durP2;ratioP2;P2;SDS_P1;SDS_P2;PMS_P1;PMS_P2;Temp;Humidity;BMP_temperature;BMP_pressure;BME280_temperature;BME280_humidity;BME280_pressure;Samples;Min_cycle;Max_cycle;Signal;HPM_P1;HPM_P2
2023/08/02 00:02:12;;;;;;;5.18;1.55;;;14.80;99.90;;;14.61;100.00;96411.25;5002972;28;20116;-37
2023/08/02 00:04:38;;;;;;;3.00;1.50;;;14.90;99.90;;;14.64;100.00;96411.03;5003946;28;20029;-37
2023/08/02 00:07:04;;;;;;;4.10;1.52;;;14.90;99.90;;;14.66;100.00;96396.72;4999240;28;20032;-37
2023/08/02 00:09:31;;;;;;;3.33;1.50;;;15.00;99.90;;;14.75;100.00;96403.19;4999830;28;20113;-37
2023/08/02 00:11:57;;;;;;;2.17;1.35;;;15.00;99.90;;;14.80;100.00;96403.69;5003741;28;20192;-37
2023/08/02 00:14:22;;;;;;;2.85;1.52;;;15.10;99.90;;;14.82;100.00;96396.50;5003287;28;20474;-37
2023/08/02 00:16:48;;;;;;;2.63;1.45;;;15.10;99.90;;;14.80;100.00;96377.16;5003119;28;20041;-37
2023/08/02 00:19:14;;;;;;;4.75;1.50;;;15.20;99.90;;;14.98;100.00;96398.06;5009360;28;20041;-37
2023/08/02 00:21:40;;;;;;;3.13;1.23;;;15.20;99.90;;;15.05;100.00;96409.94;5003042;28;20072;-37
2023/08/02 00:24:07;;;;;;;2.75;1.40;;;15.30;99.90;;;15.08;100.00;96402.59;5008122;28;20524;-37
2023/08/02 00:26:33;;;;;;;2.40;1.48;;;15.30;99.90;;;15.12;100.00;96397.94;5005718;28;20044;-37
2023/08/02 00:28:59;;;;;;;2.30;1.30;;;15.40;99.90;;;15.18;100.00;96381.56;5006670;28;20025;-37
2023/08/02 00:31:24;;;;;;;2.88;1.38;;;15.40;99.90;;;15.21;100.00;96377.84;5007302;28;20040;-37
2023/08/02 00:33:50;;;;;;;2.95;1.50;;;15.40;99.90;;;15.23;100.00;96376.75;5008495;28;20037;-37
2023/08/02 00:36:16;;;;;;;2.97;1.30;;;15.50;99.90;;;15.25;100.00;96366.03;5008651;28;20291;-37
2023/08/02 00:38:42;;;;;;;3.05;1.23;;;15.50;99.90;;;15.33;100.00;96361.03;5004860;28;21748;-37
2023/08/02 00:41:10;;;;;;;3.35;1.40;;;15.60;99.90;;;15.37;100.00;96359.81;5004077;28;20029;-37
2023/08/02 00:43:40;;;;;;;7.32;1.33;;;15.60;99.90;;;15.42;100.00;96356.84;5000841;28;20036;-37
2023/08/02 00:46:07;;;;;;;1.27;1.15;;;15.70;99.90;;;15.44;100.00;96347.78;5004733;28;20045;-37
2023/08/02 00:48:33;;;;;;;3.33;1.35;;;15.70;99.90;;;15.47;100.00;96338.78;5003957;28;20421;-38
2023/08/02 00:51:00;;;;;;;2.33;1.10;;;15.70;99.90;;;15.48;100.00;96340.44;5008302;28;20063;-37
2023/08/02 00:53:26;;;;;;;3.63;1.60;;;15.70;99.90;;;15.41;100.00;96328.56;5005647;28;20473;-37
2023/08/02 00:55:52;;;;;;;1.83;1.20;;;15.70;99.90;;;15.45;100.00;96336.22;5005223;28;21075;-37
2023/08/02 00:58:18;;;;;;;2.22;1.30;;;15.70;99.90;;;15.40;100.00;96341.03;5019865;28;20064;-37
2023/08/02 01:00:44;;;;;;;2.22;1.35;;;15.60;99.90;;;15.34;100.00;96333.47;5002119;28;20029;-37
2023/08/02 01:03:09;;;;;;;4.25;1.55;;;15.60;99.90;;;15.28;100.00;96339.25;5003013;28;20451;-37
2023/08/02 01:05:43;;;;;;;3.42;1.38;;;15.50;99.90;;;15.21;100.00;96335.34;5005761;28;20078;-37
2023/08/02 01:08:17;;;;;;;3.17;1.65;;;15.40;99.90;;;15.16;100.00;96342.78;5001478;28;20030;-37
2023/08/02 01:10:49;;;;;;;3.13;1.60;;;15.40;99.90;;;15.05;100.00;96341.75;4996832;28;20033;-37
2023/08/02 01:13:18;;;;;;;2.38;1.20;;;15.30;99.90;;;14.88;100.00;96336.81;5016432;28;20482;-37
2023/08/02 01:15:46;;;;;;;3.15;1.52;;;15.20;99.90;;;14.80;100.00;96344.47;4996812;28;20041;-37
2023/08/02 01:18:12;;;;;;;3.80;1.40;;;15.10;99.90;;;14.67;100.00;96334.72;5004711;28;20508;-37
2023/08/02 01:20:38;;;;;;;4.13;1.60;;;15.00;99.90;;;14.67;100.00;96341.84;5006094;28;20116;-37
2023/08/02 01:23:03;;;;;;;3.05;1.50;;;14.90;99.90;;;14.66;100.00;96341.00;5006616;28;20032;-37
2023/08/02 01:25:32;;;;;;;5.53;2.13;;;14.90;99.90;;;14.68;100.00;96325.81;5006549;28;20533;-37
2023/08/02 01:28:02;;;;;;;2.80;1.63;;;14.90;99.90;;;14.59;100.00;96307.88;5003433;28;20477;-37
2023/08/02 01:30:36;;;;;;;3.00;1.40;;;14.90;99.90;;;14.68;100.00;96309.88;4996364;28;20033;-37
2023/08/02 01:33:03;;;;;;;2.53;1.23;;;14.90;99.90;;;14.64;100.00;96303.09;4998734;28;20119;-37
2023/08/02 01:35:30;;;;;;;2.33;1.50;;;14.90;99.90;;;14.65;100.00;96307.44;5002944;28;20091;-37
2023/08/02 01:37:56;;;;;;;3.28;1.50;;;14.90;99.90;;;14.66;100.00;96305.63;5005939;28;20579;-37
2023/08/02 01:40:22;;;;;;;3.15;1.40;;;14.90;99.90;;;14.63;100.00;96304.06;5006503;28;20162;-37
2023/08/02 01:42:48;;;;;;;2.97;1.50;;;14.90;99.90;;;14.66;100.00;96306.50;5002133;28;20101;-37
2023/08/02 01:45:13;;;;;;;2.90;1.65;;;14.90;99.90;;;14.61;100.00;96300.66;5011136;28;20042;-37
2023/08/02 01:47:39;;;;;;;2.08;1.65;;;14.80;99.90;;;14.59;100.00;96293.75;5012399;28;20678;-37
2023/08/02 01:50:06;;;;;;;3.17;1.55;;;14.80;99.90;;;14.60;100.00;96301.59;5013924;28;20087;-37
2023/08/02 01:52:31;;;;;;;2.70;1.40;;;14.80;99.90;;;14.60;100.00;96293.66;5011785;28;20051;-37
2023/08/02 01:54:57;;;;;;;2.70;1.40;;;14.80;99.90;;;14.63;100.00;96288.13;5012565;28;20892;-37
2023/08/02 01:57:23;;;;;;;4.10;1.55;;;14.80;99.90;;;14.61;100.00;96303.31;5003643;28;20052;-37
2023/08/02 01:59:48;;;;;;;5.00;1.80;;;14.90;99.90;;;14.66;100.00;96303.84;4991422;28;20426;-37
2023/08/02 02:02:14;;;;;;;3.50;1.80;;;14.90;99.90;;;14.66;100.00;96314.47;5007936;28;20513;-37
2023/08/02 02:04:40;;;;;;;4.47;1.40;;;14.90;99.90;;;14.61;100.00;96300.66;5007586;28;20111;-37
2023/08/02 02:07:06;;;;;;;3.25;1.80;;;14.90;99.90;;;14.70;100.00;96302.66;5007619;28;20025;-37
2023/08/02 02:09:31;;;;;;;3.17;1.58;;;15.00;99.90;;;14.73;100.00;96282.16;5009119;28;20035;-37
2023/08/02 02:11:57;;;;;;;3.13;1.75;;;14.90;99.90;;;14.72;100.00;96283.16;5009926;28;20103;-37
2023/08/02 02:14:23;;;;;;;5.43;1.60;;;14.90;99.90;;;14.70;100.00;96270.81;5008514;28;20041;-37
2023/08/02 02:16:48;;;;;;;3.08;1.67;;;15.00;99.90;;;14.73;100.00;96266.25;5008372;28;20080;-37
2023/08/02 02:19:14;;;;;;;3.70;2.15;;;15.00;99.90;;;14.78;100.00;96269.41;5009091;28;20038;-38
2023/08/02 02:21:40;;;;;;;3.70;1.60;;;15.00;99.90;;;14.68;100.00;96246.19;5013899;28;20045;-37
2023/08/02 02:24:05;;;;;;;2.63;1.40;;;15.10;99.90;;;14.86;100.00;96273.22;5012129;28;20439;-37
2023/08/02 02:26:31;;;;;;;4.60;1.67;;;15.10;99.90;;;14.92;100.00;96261.31;5009024;28;20470;-37
2023/08/02 02:28:57;;;;;;;5.25;1.73;;;15.20;99.90;;;15.00;100.00;96266.91;5008077;28;21406;-37
2023/08/02 02:31:23;;;;;;;3.20;1.42;;;15.20;99.90;;;15.05;100.00;96255.94;4998094;28;20029;-37
2023/08/02 02:33:48;;;;;;;7.07;1.70;;;15.30;99.90;;;15.10;100.00;96253.81;5012322;28;20056;-37
2023/08/02 02:36:14;;;;;;;2.38;1.25;;;15.30;99.90;;;15.07;100.00;96240.75;5013942;28;20029;-37
2023/08/02 02:38:39;;;;;;;1.92;1.45;;;15.40;99.90;;;15.18;100.00;96247.94;5004822;28;20150;-37
2023/08/02 02:41:05;;;;;;;3.50;1.63;;;15.40;99.90;;;15.27;100.00;96239.28;5012816;28;20041;-37
2023/08/02 02:43:31;;;;;;;3.28;1.40;;;15.50;99.90;;;15.31;100.00;96235.44;5003424;28;20478;-37
2023/08/02 02:45:57;;;;;;;5.55;1.77;;;15.60;99.90;;;15.34;100.00;96235.19;5003911;28;20037;-37
2023/08/02 02:48:22;;;;;;;2.97;1.77;;;15.60;99.90;;;15.37;100.00;96239.44;5008903;28;20029;-37
2023/08/02 02:50:48;;;;;;;2.30;1.58;;;15.60;99.90;;;15.41;100.00;96240.91;5008603;28;20469;-37
2023/08/02 02:53:16;;;;;;;4.40;1.48;;;15.60;99.90;;;15.42;100.00;96237.31;5011747;28;20087;-37
2023/08/02 02:55:42;;;;;;;3.35;1.40;;;15.60;99.90;;;15.35;100.00;96226.28;5009208;28;20036;-37
2023/08/02 02:58:07;;;;;;;3.38;1.42;;;15.70;99.90;;;15.44;100.00;96243.34;5009473;28;20042;-37
2023/08/02 03:00:33;;;;;;;4.55;1.40;;;15.70;99.90;;;15.45;100.00;96239.72;5013129;28;20034;-37
2023/08/02 03:02:59;;;;;;;3.80;1.20;;;15.70;99.90;;;15.44;100.00;96225.59;5012490;28;20037;-37
2023/08/02 03:05:24;;;;;;;3.00;1.50;;;15.70;99.90;;;15.45;100.00;96229.94;5012639;28;20057;-37
2023/08/02 03:07:50;;;;;;;5.03;1.60;;;15.70;99.90;;;15.44;100.00;96217.63;5006386;28;20594;-37
2023/08/02 03:10:16;;;;;;;2.35;1.40;;;15.70;99.90;;;15.45;100.00;96205.16;5009798;28;20390;-37
2023/08/02 03:12:42;;;;;;;3.20;1.70;;;15.70;99.90;;;15.50;100.00;96213.66;5008523;28;20057;-37
2023/08/02 03:15:08;;;;;;;2.55;1.50;;;15.70;99.90;;;15.53;100.00;96208.09;5006850;28;21063;-37
2023/08/02 03:17:34;;;;;;;4.43;1.30;;;15.80;99.90;;;15.51;100.00;96194.09;5015188;28;20041;-37
2023/08/02 03:19:59;;;;;;;3.65;1.58;;;15.80;99.90;;;15.57;100.00;96211.38;5011734;28;20022;-37
2023/08/02 03:22:25;;;;;;;2.17;1.50;;;15.80;99.90;;;15.52;100.00;96198.44;5009824;28;20037;-37
2023/08/02 03:24:51;;;;;;;3.13;1.58;;;15.80;99.90;;;15.59;100.00;96201.47;5011189;28;20033;-37
2023/08/02 03:27:16;;;;;;;4.70;1.50;;;15.80;99.90;;;15.59;100.00;96191.69;5007387;28;20040;-37
2023/08/02 03:29:42;;;;;;;4.05;1.42;;;15.80;99.90;;;15.61;100.00;96194.22;5014354;28;20040;-37
2023/08/02 03:32:08;;;;;;;3.05;1.50;;;15.90;99.90;;;15.64;100.00;96197.50;5013062;28;20021;-37
2023/08/02 03:34:34;;;;;;;2.92;1.48;;;15.90;99.90;;;15.71;100.00;96194.38;5012292;28;20123;-37
2023/08/02 03:36:59;;;;;;;2.05;1.40;;;15.90;99.90;;;15.68;100.00;96182.16;5013514;28;20033;-37
2023/08/02 03:39:27;;;;;;;3.17;1.65;;;15.90;99.90;;;15.71;100.00;96191.72;5012467;28;20041;-39
2023/08/02 03:41:56;;;;;;;2.40;1.33;;;16.00;99.90;;;15.71;100.00;96184.59;5008734;28;20045;-38
2023/08/02 03:44:22;;;;;;;3.85;1.50;;;16.00;99.90;;;15.69;100.00;96175.06;5009305;28;20722;-37
2023/08/02 03:46:47;;;;;;;3.70;1.60;;;15.90;99.90;;;15.68;100.00;96173.34;4999605;28;20472;-37
2023/08/02 03:49:13;;;;;;;2.40;1.60;;;16.00;99.90;;;15.61;100.00;96159.69;5013899;28;20070;-37
2023/08/02 03:51:39;;;;;;;3.85;1.40;;;16.00;99.90;;;15.74;100.00;96164.91;5014372;28;20056;-37
2023/08/02 03:54:06;;;;;;;4.05;1.60;;;16.00;99.90;;;15.70;100.00;96161.63;5012791;28;20041;-37
2023/08/02 03:56:31;;;;;;;2.30;1.30;;;16.00;99.90;;;15.71;100.00;96157.19;5010982;28;20034;-37
2023/08/02 03:58:57;;;;;;;3.38;1.30;;;16.00;99.90;;;15.75;100.00;96146.22;5007923;28;20522;-37
2023/08/02 04:01:23;;;;;;;2.72;1.50;;;16.00;99.90;;;15.73;100.00;96145.44;5007548;28;20061;-37
2023/08/02 04:03:48;;;;;;;3.00;1.30;;;16.00;99.90;;;15.76;100.00;96142.59;5004420;28;20200;-37
2023/08/02 04:06:14;;;;;;;4.72;1.77;;;16.00;99.90;;;15.77;100.00;96141.66;5012028;28;20474;-37
2023/08/02 04:08:40;;;;;;;4.28;2.00;;;16.00;99.90;;;15.77;100.00;96136.31;5012072;28;20021;-37
2023/08/02 04:11:06;;;;;;;2.60;1.58;;;16.00;99.90;;;15.80;100.00;96136.06;5007197;28;20418;-37
2023/08/02 04:13:32;;;;;;;3.55;1.50;;;16.00;99.90;;;15.73;100.00;96126.00;5004912;28;20061;-37
2023/08/02 04:15:58;;;;;;;2.05;1.20;;;16.00;99.90;;;15.74;100.00;96119.72;5012130;28;20495;-37
2023/08/02 04:18:24;;;;;;;2.70;1.52;;;16.10;99.90;;;15.84;100.00;96132.22;5008259;28;20025;-37
2023/08/02 04:20:49;;;;;;;3.10;1.67;;;16.10;99.90;;;15.78;100.00;96124.72;5010658;28;20208;-37
2023/08/02 04:23:15;;;;;;;3.60;1.80;;;16.10;99.90;;;15.86;100.00;96123.28;5011489;28;20037;-37
2023/08/02 04:25:41;;;;;;;2.80;1.55;;;16.10;99.90;;;15.84;100.00;96118.94;5011683;28;20040;-37
2023/08/02 04:28:06;;;;;;;2.40;1.58;;;16.10;99.90;;;15.76;100.00;96118.69;5007863;28;20033;-37
2023/08/02 04:30:32;;;;;;;4.38;1.65;;;16.00;99.90;;;15.73;100.00;96118.03;5007358;28;20033;-37
2023/08/02 04:32:58;;;;;;;1.88;1.50;;;16.00;99.90;;;15.65;100.00;96108.00;5013063;28;20068;-37
2023/08/02 04:35:24;;;;;;;2.03;1.48;;;15.90;99.90;;;15.55;100.00;96107.88;5016950;28;20033;-37
2023/08/02 04:37:50;;;;;;;2.88;1.60;;;15.80;99.90;;;15.46;100.00;96100.63;5010195;28;20061;-37
2023/08/02 04:40:16;;;;;;;2.83;1.45;;;15.70;99.90;;;15.37;100.00;96104.81;5024745;28;20033;-37
2023/08/02 04:42:41;;;;;;;4.43;1.83;;;15.60;99.90;;;15.23;100.00;96091.75;5013323;28;20061;-37
2023/08/02 04:45:08;;;;;;;2.42;1.65;;;15.60;99.90;;;15.24;100.00;96099.59;5014204;28;20033;-37
2023/08/02 04:47:34;;;;;;;5.55;2.03;;;15.50;99.90;;;15.19;100.00;96090.31;5013254;28;20034;-37
2023/08/02 04:50:00;;;;;;;3.20;1.67;;;15.50;99.90;;;15.04;100.00;96073.75;5012451;28;20037;-37
2023/08/02 04:52:26;;;;;;;3.17;1.77;;;15.40;99.90;;;15.07;100.00;96074.34;5014387;28;20141;-37
2023/08/02 04:54:52;;;;;;;3.70;1.80;;;15.40;99.90;;;15.10;100.00;96080.38;5013371;28;20050;-37
2023/08/02 04:57:18;;;;;;;2.90;1.73;;;15.40;99.90;;;15.04;100.00;96077.22;5014398;28;20046;-37
2023/08/02 04:59:43;;;;;;;2.25;1.50;;;15.30;99.90;;;15.02;100.00;96076.50;5018374;28;20033;-38
2023/08/02 05:02:09;;;;;;;6.18;2.10;;;15.30;99.90;;;14.98;100.00;96080.34;5015237;28;20366;-37
2023/08/02 05:04:35;;;;;;;4.05;2.08;;;15.30;99.90;;;14.90;100.00;96077.44;5014294;28;20041;-37
2023/08/02 05:07:00;;;;;;;3.70;2.13;;;15.20;99.90;;;14.81;100.00;96076.31;5018733;28;20033;-37
2023/08/02 05:09:26;;;;;;;7.25;1.95;;;15.10;99.90;;;14.78;100.00;96076.53;5015422;28;20034;-38
2023/08/02 05:11:52;;;;;;;5.85;2.28;;;15.10;99.90;;;14.74;100.00;96079.56;5017362;28;20342;-37
2023/08/02 05:14:18;;;;;;;4.80;1.83;;;15.00;99.90;;;14.70;100.00;96081.59;5017403;28;20116;-37
2023/08/02 05:16:44;;;;;;;2.67;1.70;;;15.00;99.90;;;14.66;100.00;96078.31;5017665;28;20040;-37
2023/08/02 05:19:10;;;;;;;5.43;2.70;;;14.90;99.90;;;14.60;100.00;96062.00;5016925;28;20577;-37
2023/08/02 05:21:36;;;;;;;5.25;2.35;;;14.90;99.90;;;14.60;100.00;96068.13;5021076;28;20068;-37
2023/08/02 05:24:01;;;;;;;4.57;1.98;;;14.90;99.90;;;14.56;100.00;96066.66;5022206;28;20042;-37
2023/08/02 05:26:27;;;;;;;7.07;2.60;;;14.80;99.90;;;14.51;100.00;96064.31;5018901;28;20336;-37
2023/08/02 05:28:53;;;;;;;6.25;2.53;;;14.80;99.90;;;14.49;100.00;96057.44;5014789;28;20387;-37
2023/08/02 05:31:18;;;;;;;3.38;2.00;;;14.80;99.90;;;14.48;100.00;96055.75;5020239;28;20033;-37
2023/08/02 05:33:44;;;;;;;3.95;2.15;;;14.80;99.90;;;14.38;100.00;96036.19;5018894;28;20029;-37
2023/08/02 05:36:14;;;;;;;8.27;2.67;;;14.80;99.90;;;14.46;100.00;96049.72;5015375;28;20429;-37
2023/08/02 05:38:41;;;;;;;3.70;2.60;;;14.70;99.90;;;14.32;100.00;96027.72;5014395;28;20075;-37
2023/08/02 05:41:07;;;;;;;6.97;2.47;;;14.70;99.90;;;14.45;100.00;96051.53;5020537;28;20419;-37
2023/08/02 05:43:32;;;;;;;2.97;1.92;;;14.70;99.90;;;14.47;100.00;96046.13;5011276;28;20044;-37
2023/08/02 05:45:58;;;;;;;5.60;2.50;;;14.80;99.90;;;14.51;100.00;96058.19;5010717;28;20030;-37
2023/08/02 05:48:24;;;;;;;3.83;2.30;;;14.80;99.90;;;14.57;100.00;96047.13;5012421;28;20420;-37
2023/08/02 05:50:50;;;;;;;4.57;2.50;;;14.80;99.90;;;14.51;100.00;96037.78;5024755;28;20122;-37
2023/08/02 05:53:16;;;;;;;4.00;2.65;;;14.90;99.90;;;14.62;100.00;96033.53;5015886;28;20759;-38
2023/08/02 05:55:41;;;;;;;3.72;2.80;;;14.90;99.90;;;14.62;100.00;96017.63;5018403;28;20037;-37
2023/08/02 05:58:07;;;;;;;5.20;2.72;;;14.90;99.90;;;14.67;100.00;96020.78;5024858;28;20095;-37
2023/08/02 06:00:33;;;;;;;4.80;2.80;;;14.90;99.90;;;14.65;100.00;96028.84;5020857;28;20041;-36
2023/08/02 06:02:58;;;;;;;4.13;2.40;;;14.90;99.90;;;14.66;100.00;96030.56;5018900;28;20056;-37
2023/08/02 06:05:24;;;;;;;4.85;2.42;;;15.00;99.90;;;14.68;100.00;96035.75;5016736;28;20049;-37
2023/08/02 06:07:51;;;;;;;3.22;2.13;;;14.90;99.90;;;14.69;100.00;96046.22;5019401;28;20026;-37
2023/08/02 06:10:17;;;;;;;6.55;2.75;;;14.90;99.90;;;14.70;100.00;96039.13;5019794;28;20040;-37
2023/08/02 06:12:43;;;;;;;3.65;2.55;;;15.00;99.90;;;14.74;100.00;96037.09;5020668;28;20029;-37
2023/08/02 06:15:09;;;;;;;5.15;2.83;;;15.00;99.90;;;14.76;100.00;96032.50;5021106;28;20037;-37
2023/08/02 06:17:35;;;;;;;5.10;2.95;;;15.00;99.90;;;14.77;100.00;96019.13;5024015;28;20018;-37
2023/08/02 06:20:01;;;;;;;4.63;2.78;;;15.10;99.90;;;14.80;100.00;96023.34;5024676;28;20037;-37
2023/08/02 06:22:26;;;;;;;5.38;2.88;;;15.10;99.90;;;14.79;100.00;96019.03;5017916;28;20025;-37
2023/08/02 06:24:52;;;;;;;7.60;3.08;;;15.10;99.90;;;14.81;100.00;96015.28;5020121;28;20488;-37
2023/08/02 06:27:18;;;;;;;5.90;3.15;;;15.10;99.90;;;14.83;100.00;96016.00;5021044;28;20505;-37
2023/08/02 06:29:43;;;;;;;4.80;2.60;;;15.10;99.90;;;14.88;100.00;96005.88;5015962;28;20302;-37
2023/08/02 06:32:09;;;;;;;4.88;2.78;;;15.20;99.90;;;14.88;100.00;95987.31;5023146;28;20029;-37
2023/08/02 06:34:35;;;;;;;5.05;2.83;;;15.20;99.90;;;15.01;100.00;95992.50;5027304;28;20041;-37
2023/08/02 06:37:00;;;;;;;3.78;2.72;;;15.30;99.90;;;15.11;100.00;95991.78;5027031;28;20051;-37
2023/08/02 06:39:26;;;;;;;5.07;2.85;;;15.40;99.90;;;15.14;100.00;95999.53;5023738;28;20022;-37
2023/08/02 06:41:52;;;;;;;4.70;3.05;;;15.40;99.90;;;15.14;100.00;95992.41;5030748;28;20041;-37
2023/08/02 06:44:18;;;;;;;5.00;2.45;;;15.40;99.90;;;15.22;100.00;95970.56;5029611;28;20029;-39
2023/08/02 06:46:43;;;;;;;5.57;2.70;;;15.50;99.90;;;15.32;100.00;95974.19;5021887;28;20029;-37
2023/08/02 06:49:09;;;;;;;3.65;2.47;;;15.60;99.90;;;15.44;100.00;95965.25;5015871;28;20443;-37
2023/08/02 06:51:35;;;;;;;4.80;2.83;;;15.70;99.90;;;15.59;100.00;95954.38;5022150;28;20040;-37
2023/08/02 06:54:01;;;;;;;8.18;3.42;;;15.90;99.90;;;15.80;100.00;95963.28;5019541;28;20037;-37
2023/08/02 06:56:26;;;;;;;5.05;3.03;;;16.00;99.90;;;15.99;100.00;95964.47;5018874;28;20119;-36
2023/08/02 06:58:52;;;;;;;7.30;3.03;;;16.20;99.90;;;16.10;100.00;95953.81;5019864;28;20081;-37
2023/08/02 07:01:20;;;;;;;4.70;2.60;;;16.40;99.90;;;16.19;100.00;95958.34;5019712;28;20393;-37
2023/08/02 07:03:46;;;;;;;5.50;2.70;;;16.50;99.90;;;16.22;100.00;95960.78;5016356;28;20030;-37
2023/08/02 07:06:17;;;;;;;7.65;3.47;;;16.60;99.90;;;16.19;100.00;95953.03;5019751;28;20025;-37
2023/08/02 07:08:44;;;;;;;5.30;2.88;;;16.50;99.90;;;16.10;100.00;95952.97;5021802;28;20038;-37
2023/08/02 07:11:11;;;;;;;5.70;3.22;;;16.50;99.90;;;16.02;100.00;95953.56;5019628;28;20493;-37
2023/08/02 07:13:37;;;;;;;6.75;3.10;;;16.40;99.90;;;16.00;100.00;95934.25;5016176;28;20048;-38
2023/08/02 07:16:04;;;;;;;8.88;3.30;;;16.30;99.90;;;15.96;100.00;95946.94;5019121;28;20045;-37
2023/08/02 07:18:30;;;;;;;4.60;2.80;;;16.30;99.90;;;15.98;100.00;95933.53;5017477;28;20091;-37
2023/08/02 07:20:56;;;;;;;5.65;2.90;;;16.30;99.90;;;16.15;100.00;95938.31;5018431;28;20037;-37
2023/08/02 07:23:22;;;;;;;7.20;3.35;;;16.40;99.90;;;16.28;100.00;95931.97;5019881;28;20057;-37
2023/08/02 07:25:48;;;;;;;6.30;3.72;;;16.50;99.90;;;16.42;100.00;95924.53;5019843;28;20206;-37
2023/08/02 07:28:14;;;;;;;6.93;3.00;;;16.70;99.90;;;16.65;100.00;95907.59;5020167;28;20045;-37
2023/08/02 07:30:39;;;;;;;6.47;3.25;;;16.90;99.90;;;16.92;100.00;95907.94;5016771;28;20040;-37
2023/08/02 07:33:05;;;;;;;5.72;3.10;;;17.20;99.90;;;17.05;100.00;95902.38;5017473;28;20045;-37
2023/08/02 07:35:38;;;;;;;7.13;3.15;;;17.30;99.90;;;17.10;100.00;95900.16;5018882;28;20029;-37
2023/08/02 07:38:04;;;;;;;7.78;3.05;;;17.40;99.90;;;17.11;100.00;95893.84;5017477;28;20041;-38
2023/08/02 07:40:29;;;;;;;4.93;2.78;;;17.40;99.90;;;17.14;100.00;95893.59;5013539;28;20037;-38
2023/08/02 07:42:55;;;;;;;6.20;3.10;;;17.40;99.90;;;17.22;100.00;95892.06;5027158;28;20030;-37
2023/08/02 07:45:21;;;;;;;5.65;3.20;;;17.50;99.90;;;17.31;100.00;95872.59;5025316;28;20033;-37
2023/08/02 07:47:47;;;;;;;8.02;2.95;;;17.70;99.90;;;17.49;100.00;95886.13;5025039;28;20480;-38
2023/08/02 07:50:13;;;;;;;4.05;2.63;;;17.80;99.90;;;17.63;100.00;95875.06;5021290;28;20044;-38
2023/08/02 07:52:38;;;;;;;4.80;2.92;;;17.90;99.90;;;17.63;100.00;95882.22;5015319;28;20033;-37
2023/08/02 07:55:04;;;;;;;6.47;2.90;;;18.00;99.90;;;17.69;100.00;95879.88;5004335;28;20045;-37
2023/08/02 07:57:34;;;;;;;4.47;2.97;;;18.00;99.90;;;17.73;100.00;95880.44;5016654;28;20021;-37
2023/08/02 08:00:00;;;;;;;6.97;3.67;;;18.00;99.90;;;17.74;100.00;95885.59;5019581;28;20097;-37
2023/08/02 08:02:27;;;;;;;5.88;3.00;;;18.10;99.90;;;17.57;100.00;95859.63;5016431;28;20029;-37
2023/08/02 08:04:54;;;;;;;4.90;3.00;;;18.00;99.90;;;17.49;100.00;95872.78;5016435;28;20045;-37
2023/08/02 08:07:20;;;;;;;5.15;2.65;;;17.90;99.90;;;17.25;100.00;95866.00;5019101;28;20033;-37
2023/08/02 08:09:46;;;;;;;4.28;2.80;;;17.70;99.90;;;17.10;100.00;95852.22;5015233;28;20144;-38
2023/08/02 08:12:12;;;;;;;6.32;2.80;;;17.50;99.90;;;17.07;100.00;95863.13;5016786;28;20033;-37
2023/08/02 08:14:38;;;;;;;3.58;2.67;;;17.40;99.90;;;16.96;100.00;95855.25;5015102;28;20576;-37
2023/08/02 08:17:04;;;;;;;5.30;2.65;;;17.30;99.90;;;16.77;100.00;95832.00;5015439;28;20033;-37
2023/08/02 08:19:32;;;;;;;9.63;3.30;;;17.20;99.90;;;16.97;100.00;95840.94;5013061;28;20048;-38
2023/08/02 08:21:58;;;;;;;6.88;3.15;;;17.30;99.90;;;16.93;100.00;95839.53;5018118;28;20235;-37
2023/08/02 08:24:23;;;;;;;4.22;2.85;;;17.20;99.90;;;16.92;100.00;95830.72;5011935;28;20425;-37
2023/08/02 08:26:50;;;;;;;4.63;3.10;;;17.20;99.90;;;16.77;100.00;95808.03;5013061;28;20026;-38
2023/08/02 08:29:17;;;;;;;5.30;2.90;;;17.20;99.90;;;16.93;100.00;95812.91;5015505;28;20046;-38
2023/08/02 08:31:42;;;;;;;5.03;3.17;;;17.20;99.90;;;16.92;100.00;95816.53;5013537;28;20033;-38
2023/08/02 08:34:08;;;;;;;5.88;3.17;;;17.30;99.90;;;16.95;100.00;95827.75;5011423;28;20033;-37
2023/08/02 08:36:34;;;;;;;5.78;3.13;;;17.30;99.90;;;16.97;100.00;95831.13;5008146;28;20041;-37
2023/08/02 08:38:59;;;;;;;5.03;2.90;;;17.30;99.90;;;17.02;100.00;95816.59;5004484;28;20029;-39
2023/08/02 08:41:25;;;;;;;4.13;3.03;;;17.30;99.90;;;17.05;100.00;95817.16;5015290;28;20140;-41
2023/08/02 08:43:51;;;;;;;4.20;2.65;;;17.30;99.90;;;17.05;100.00;95811.84;5016110;28;20109;-37
2023/08/02 08:46:18;;;;;;;4.05;2.83;;;17.40;99.90;;;17.08;100.00;95811.53;5012059;28;20029;-37
2023/08/02 08:48:44;;;;;;;5.28;2.90;;;17.40;99.90;;;17.11;100.00;95807.78;5015348;28;20032;-37
2023/08/02 08:51:11;;;;;;;5.35;2.63;;;17.40;99.90;;;17.15;100.00;95802.03;5012188;28;20030;-37
2023/08/02 08:53:44;;;;;;;4.57;2.90;;;17.40;99.90;;;17.14;100.00;95803.03;5015690;28;20661;-37
2023/08/02 08:56:10;;;;;;;;;;;17.50;99.90;;;17.07;100.00;95777.91;5013658;28;20034;-37
2023/08/02 08:58:37;;;;;;;4.43;2.47;;;17.40;99.90;;;17.11;100.00;95800.63;5016957;28;19992;-37
2023/08/02 09:01:05;;;;;;;4.70;2.90;;;17.40;99.90;;;17.09;100.00;95791.94;5011537;28;20091;-37
2023/08/02 09:03:32;;;;;;;4.35;2.80;;;17.40;99.90;;;17.00;100.00;95789.25;5014296;28;20038;-39
2023/08/02 09:06:00;;;;;;;4.25;2.67;;;17.30;99.90;;;16.83;100.00;95777.38;5018134;28;20030;-37
2023/08/02 09:08:26;;;;;;;5.05;2.97;;;17.30;99.90;;;16.92;100.00;95787.25;5018455;28;20052;-38
2023/08/02 09:10:53;;;;;;;11.65;3.28;;;17.20;99.90;;;16.93;100.00;95794.28;5008376;28;20026;-37
2023/08/02 09:13:26;;;;;;;4.07;2.50;;;17.20;99.90;;;16.94;100.00;95798.59;5013435;28;20077;-37
2023/08/02 09:16:12;;;;;;;3.75;2.53;;;17.20;99.90;;;16.98;100.00;95792.88;5016386;28;20040;-37
2023/08/02 09:18:44;;;;;;;4.13;2.60;;;17.30;99.90;;;16.91;100.00;95764.28;5015054;28;20040;-37
2023/08/02 09:21:14;;;;;;;6.80;3.22;;;17.30;99.90;;;17.09;100.00;95785.78;5011089;28;20030;-37
2023/08/02 09:23:45;;;;;;;7.10;2.90;;;17.40;99.90;;;17.15;100.00;95786.03;5011042;28;20222;-37
2023/08/02 09:26:19;;;;;;;3.30;2.53;;;17.40;99.90;;;17.20;100.00;95771.50;5016873;28;20087;-37
2023/08/02 09:29:06;;;;;;;3.53;2.50;;;17.50;99.90;;;17.32;100.00;95765.91;5012551;28;20041;-37
2023/08/02 09:31:34;;;;;;;4.68;2.72;;;17.60;99.90;;;17.36;100.00;95772.63;5012676;28;20394;-37
2023/08/02 09:34:01;;;;;;;4.38;2.70;;;17.60;99.90;;;17.47;100.00;95773.50;5009879;28;20445;-37
2023/08/02 09:36:34;;;;;;;4.68;3.28;;;17.70;99.90;;;17.55;100.00;95773.66;5007007;28;20043;-37
2023/08/02 09:39:20;;;;;;;5.43;2.95;;;17.80;99.90;;;17.71;100.00;95762.41;5013601;28;20069;-37
2023/08/02 09:41:46;;;;;;;5.10;2.90;;;18.00;99.90;;;17.88;100.00;95761.75;5008420;28;20076;-37
2023/08/02 09:44:21;;;;;;;5.82;3.08;;;18.20;99.90;;;17.99;100.00;95758.06;5016545;28;20029;-37
2023/08/02 09:46:46;;;;;;;5.53;3.20;;;18.30;99.90;;;18.05;100.00;95752.19;5012330;28;20052;-36
2023/08/02 09:49:20;;;;;;;6.97;3.33;;;18.40;99.90;;;18.05;100.00;95752.19;5016259;28;20021;-37
2023/08/02 09:51:46;;;;;;;4.38;2.97;;;18.40;99.90;;;18.10;100.00;95736.56;5011931;28;20052;-37
2023/08/02 09:54:14;;;;;;;4.93;3.47;;;18.50;99.90;;;18.23;100.00;95738.94;5013063;28;20029;-37
2023/08/02 09:56:42;;;;;;;5.35;3.22;;;18.50;99.90;;;18.19;100.00;95768.72;5015566;28;20076;-37
2023/08/02 09:59:08;;;;;;;7.60;3.63;;;18.50;99.90;;;18.30;100.00;95752.53;5019119;28;20029;-37
2023/08/02 10:01:36;;;;;;;6.10;3.08;;;18.60;99.90;;;18.36;100.00;95743.97;5007848;28;20540;-37
2023/08/02 10:04:12;;;;;;;4.93;2.95;;;18.70;99.90;;;18.40;100.00;95750.69;5000976;28;20040;-36
2023/08/02 10:06:46;;;;;;;5.63;3.30;;;18.70;99.90;;;18.54;100.00;95749.38;5009378;28;20034;-36
2023/08/02 10:09:25;;;;;;;4.30;3.47;;;18.90;99.90;;;18.81;100.00;95731.69;5016310;28;20037;-37
2023/08/02 10:12:09;;;;;;;5.35;3.70;;;19.00;99.90;;;19.02;100.00;95724.31;5017234;28;20113;-36